Time;durP1;ratioP1;P1;durP2;ratioP2;P2;SDS_P1;SDS_P2;PMS_P1;PMS_P2;Temp;Humidity;BMP_temperature;BMP_pressure;BME280_temperature;BME280_humidity;BME280_pressure;Samples;Min_cycle;Max_cycle;Signal;HPM_P1;HPM_P2
2023/03/05 00:02:03;;;;;;;18.65;6.65;;;2.80;99.90;;;;;;5030646;28;20365;-82
2023/03/05 00:04:29;;;;;;;21.65;7.25;;;2.80;99.90;;;;;;5029034;28;20386;-81
2023/03/05 00:06:55;;;;;;;23.33;6.70;;;2.90;99.90;;;;;;5027601;28;20428;-81
2023/03/05 00:09:21;;;;;;;21.27;6.00;;;2.90;99.90;;;;;;5028991;28;20476;-83
2023/03/05 00:11:47;;;;;;;20.90;5.85;;;3.00;99.90;;;;;;5019833;28;20397;-83
2023/03/05 00:14:13;;;;;;;19.13;5.95;;;2.90;99.90;;;;;;5018384;28;22005;-83
2023/03/05 00:16:40;;;;;;;20.23;6.38;;;2.80;99.90;;;;;;5023817;28;20472;-82
2023/03/05 00:19:06;;;;;;;19.77;5.70;;;2.70;99.90;;;;;;5023400;28;20483;-82
2023/03/05 00:21:37;;;;;;;17.83;5.60;;;2.70;99.90;;;;;;5020450;28;20421;-80
2023/03/05 00:24:09;;;;;;;20.27;5.67;;;2.70;99.90;;;;;;5028217;28;20389;-83
2023/03/05 00:26:37;;;;;;;19.13;5.60;;;2.70;99.90;;;;;;5028266;28;20385;-83
2023/03/05 00:29:06;;;;;;;16.73;5.53;;;2.70;99.90;;;;;;5025844;28;20394;-83
2023/03/05 00:31:34;;;;;;;18.77;5.47;;;2.70;99.90;;;;;;5030788;28;20451;-84
2023/03/05 00:34:06;;;;;;;17.40;5.03;;;2.60;99.90;;;;;;5032038;28;20369;-82
2023/03/05 00:36:33;;;;;;;15.98;4.55;;;2.70;99.90;;;;;;5027831;28;20385;-81
2023/03/05 00:38:59;;;;;;;15.07;4.47;;;2.60;99.90;;;;;;5027921;28;20409;-82
2023/03/05 00:41:25;;;;;;;15.35;4.75;;;2.70;99.90;;;;;;5029238;28;20369;-82
2023/03/05 00:43:50;;;;;;;14.52;4.72;;;2.70;99.90;;;;;;5027856;28;20792;-82
2023/03/05 00:46:17;;;;;;;15.30;4.60;;;2.70;99.90;;;;;;5028448;28;20397;-82
2023/03/05 00:48:43;;;;;;;13.10;4.30;;;2.60;99.90;;;;;;5029736;28;20971;-81
2023/03/05 00:51:09;;;;;;;13.27;4.43;;;2.70;99.90;;;;;;5025411;28;20472;-82
2023/03/05 00:53:35;;;;;;;13.38;3.83;;;2.60;99.90;;;;;;5028792;28;20389;-82
2023/03/05 00:56:00;;;;;;;12.90;4.50;;;2.50;99.90;;;;;;5028533;28;20393;-82
2023/03/05 00:58:26;;;;;;;17.10;4.13;;;2.60;99.90;;;;;;5030170;28;20464;-82
2023/03/05 01:00:56;;;;;;;12.68;4.20;;;2.60;99.90;;;;;;5028802;28;20431;-83
2023/03/05 01:03:22;;;;;;;11.55;3.92;;;2.60;99.90;;;;;;5029914;28;20844;-83
2023/03/05 01:05:47;;;;;;;14.73;4.37;;;2.50;99.90;;;;;;5029716;28;20472;-83
2023/03/05 01:08:14;;;;;;;12.57;4.05;;;2.50;99.90;;;;;;5028529;28;20405;-83
2023/03/05 01:10:40;;;;;;;10.95;3.92;;;2.50;99.90;;;;;;5030317;28;20492;-83
2023/03/05 01:13:15;;;;;;;10.93;3.77;;;2.50;99.90;;;;;;5030382;28;20781;-81
2023/03/05 01:15:41;;;;;;;14.30;3.55;;;2.50;99.90;;;;;;5010801;28;20434;-81
2023/03/05 01:18:07;;;;;;;9.30;3.70;;;2.50;99.90;;;;;;5010141;28;20408;-82
2023/03/05 01:20:33;;;;;;;15.20;4.33;;;2.40;99.90;;;;;;5009053;28;20473;-82
2023/03/05 01:23:00;;;;;;;9.30;3.33;;;2.30;99.90;;;;;;5013982;28;20781;-83
2023/03/05 01:25:26;;;;;;;11.57;3.50;;;2.20;99.90;;;;;;5014644;28;20407;-82
2023/03/05 01:27:52;;;;;;;8.68;3.30;;;2.10;99.90;;;;;;5009210;28;20379;-83
2023/03/05 01:30:18;;;;;;;16.08;3.45;;;2.20;99.90;;;;;;5010102;28;20862;-83
2023/03/05 01:32:44;;;;;;;13.95;3.85;;;2.00;99.90;;;;;;5007872;28;20387;-82
2023/03/05 01:35:19;;;;;;;11.38;3.65;;;2.00;99.90;;;;;;5026451;28;20859;-82
2023/03/05 01:37:44;;;;;;;10.40;3.88;;;2.00;99.90;;;;;;5029172;28;20406;-82
2023/03/05 01:40:12;;;;;;;12.02;3.63;;;2.00;99.90;;;;;;5029517;28;20381;-82
2023/03/05 01:42:38;;;;;;;10.45;3.38;;;1.80;99.90;;;;;;5029403;28;20460;-82
2023/03/05 01:45:09;;;;;;;12.40;3.70;;;1.60;99.90;;;;;;5022934;28;20508;-82
2023/03/05 01:47:35;;;;;;;10.10;3.20;;;1.70;99.90;;;;;;5030235;28;20835;-81
2023/03/05 01:50:02;;;;;;;11.68;3.35;;;1.70;99.90;;;;;;5030510;28;20439;-82
2023/03/05 01:52:30;;;;;;;9.77;3.20;;;1.60;99.90;;;;;;5019722;28;20883;-82
2023/03/05 01:55:03;;;;;;;10.50;3.58;;;1.50;99.90;;;;;;5025759;28;20405;-82
2023/03/05 01:57:33;;;;;;;9.50;3.40;;;1.50;99.90;;;;;;5027825;28;20413;-82
2023/03/05 02:00:05;;;;;;;12.25;3.42;;;1.50;99.90;;;;;;5028160;28;20381;-82
2023/03/05 02:02:31;;;;;;;11.57;3.50;;;1.50;99.90;;;;;;5025777;28;20393;-82
2023/03/05 02:05:02;;;;;;;11.60;3.37;;;1.50;99.90;;;;;;5029511;28;20958;-82
2023/03/05 02:07:30;;;;;;;12.67;3.53;;;1.40;99.90;;;;;;5028590;28;20376;-82
2023/03/05 02:09:56;;;;;;;10.38;3.65;;;1.50;99.90;;;;;;5029347;28;20380;-82
2023/03/05 02:12:22;;;;;;;12.37;3.87;;;1.60;99.90;;;;;;5019371;28;20407;-82
2023/03/05 02:14:57;;;;;;;10.57;3.30;;;1.50;99.90;;;;;;5026787;28;20389;-82
2023/03/05 02:17:25;;;;;;;10.27;3.38;;;1.60;99.90;;;;;;5032144;28;20409;-82
2023/03/05 02:19:54;;;;;;;7.47;3.00;;;1.70;99.90;;;;;;5023035;28;20406;-82
2023/03/05 02:22:22;;;;;;;9.20;3.22;;;1.70;99.90;;;;;;5006841;28;20403;-83
2023/03/05 02:24:49;;;;;;;10.93;3.40;;;1.80;99.90;;;;;;5017904;28;20394;-83
2023/03/05 02:27:15;;;;;;;11.70;3.08;;;1.80;99.90;;;;;;5028131;28;20365;-82
2023/03/05 02:29:44;;;;;;;7.43;3.23;;;1.90;99.90;;;;;;5022294;28;20418;-82
2023/03/05 02:32:11;;;;;;;7.97;3.13;;;1.80;99.90;;;;;;5019318;28;20392;-82
2023/03/05 02:34:37;;;;;;;12.43;3.88;;;1.80;99.90;;;;;;5027417;28;20378;-82
2023/03/05 02:37:03;;;;;;;9.43;3.05;;;1.80;99.90;;;;;;5027148;28;20491;-82
2023/03/05 02:39:30;;;;;;;10.53;3.23;;;1.80;99.90;;;;;;5026981;28;20389;-81
2023/03/05 02:41:56;;;;;;;11.63;3.63;;;1.90;99.90;;;;;;5020073;28;20397;-82
2023/03/05 02:44:22;;;;;;;9.37;3.23;;;2.00;99.90;;;;;;5028454;28;20369;-81
2023/03/05 02:46:48;;;;;;;10.60;3.50;;;2.00;99.90;;;;;;5025879;28;20791;-82
2023/03/05 02:49:14;;;;;;;9.02;3.30;;;2.00;99.90;;;;;;5028743;28;20388;-82
2023/03/05 02:51:40;;;;;;;11.23;3.40;;;2.00;99.90;;;;;;5016967;28;20490;-82
2023/03/05 02:54:06;;;;;;;13.35;3.58;;;1.90;99.90;;;;;;5009204;28;20379;-81
2023/03/05 02:56:37;;;;;;;10.63;3.83;;;2.00;99.90;;;;;;5008109;28;20399;-82
2023/03/05 02:59:03;;;;;;;9.73;3.38;;;2.00;99.90;;;;;;5038802;28;20417;-81
2023/03/05 03:01:29;;;;;;;11.45;3.97;;;1.90;99.90;;;;;;5006991;28;20802;-82
2023/03/05 03:03:55;;;;;;;11.75;3.78;;;1.90;99.90;;;;;;5005755;28;20395;-82
2023/03/05 03:06:20;;;;;;;9.45;3.40;;;2.00;99.90;;;;;;5040499;28;20395;-82
2023/03/05 03:08:46;;;;;;;10.57;3.33;;;1.80;99.90;;;;;;5272633;23;20431;-81
2023/03/05 03:11:12;;;;;;;11.85;4.00;;;1.80;99.90;;;;;;5027200;28;20380;-82
2023/03/05 03:13:38;;;;;;;11.57;3.70;;;1.80;99.90;;;;;;5026103;28;20373;-82
2023/03/05 03:16:08;;;;;;;10.38;3.45;;;1.80;99.90;;;;;;5026940;28;20381;-83
2023/03/05 03:18:34;;;;;;;8.32;3.75;;;1.70;99.90;;;;;;5026059;28;20444;-83
2023/03/05 03:21:00;;;;;;;8.88;3.17;;;1.40;99.90;;;;;;5027895;28;20386;-82
2023/03/05 03:23:27;;;;;;;8.75;3.40;;;1.40;99.90;;;;;;5030250;28;20743;-83
2023/03/05 03:25:53;;;;;;;8.90;3.20;;;1.30;99.90;;;;;;5027558;28;20483;-82
2023/03/05 03:28:18;;;;;;;10.87;3.40;;;1.30;99.90;;;;;;5025184;28;21058;-83
2023/03/05 03:30:46;;;;;;;8.43;3.30;;;1.20;99.90;;;;;;5047870;28;20381;-82
2023/03/05 03:33:16;;;;;;;11.68;3.42;;;1.20;99.90;;;;;;5032384;28;20388;-82
2023/03/05 03:35:44;;;;;;;10.07;3.05;;;1.00;99.90;;;;;;5031355;28;20396;-82
2023/03/05 03:38:12;;;;;;;8.53;3.30;;;1.00;99.90;;;;;;5029546;28;20461;-81
2023/03/05 03:40:41;;;;;;;6.38;3.10;;;1.00;99.90;;;;;;5015016;28;20397;-83
2023/03/05 03:43:08;;;;;;;9.88;3.05;;;0.90;99.90;;;;;;5030849;28;20373;-83
2023/03/05 03:45:34;;;;;;;8.60;3.00;;;1.00;99.90;;;;;;5030923;28;20429;-83
2023/03/05 03:48:00;;;;;;;10.93;3.27;;;1.00;99.90;;;;;;5029912;28;20417;-82
2023/03/05 03:50:25;;;;;;;11.07;3.10;;;0.90;99.90;;;;;;5031086;28;20389;-82
2023/03/05 03:52:51;;;;;;;9.73;3.30;;;0.90;99.90;;;;;;5032283;28;21236;-81
2023/03/05 03:55:17;;;;;;;13.03;3.60;;;1.00;99.90;;;;;;5032257;28;20373;-82
2023/03/05 03:57:43;;;;;;;8.27;3.00;;;1.00;99.90;;;;;;5029536;28;20771;-82
2023/03/05 04:00:17;;;;;;;7.47;3.47;;;1.00;99.90;;;;;;5030629;28;20451;-82
2023/03/05 04:02:45;;;;;;;12.00;3.30;;;0.90;99.90;;;;;;5031244;28;20381;-82
2023/03/05 04:05:13;;;;;;;9.05;3.30;;;1.00;99.90;;;;;;5032043;28;20377;-82
2023/03/05 04:07:39;;;;;;;9.57;3.83;;;1.10;99.90;;;;;;5020415;28;20492;-82
2023/03/05 04:10:07;;;;;;;9.17;3.43;;;1.00;99.90;;;;;;5017288;28;20726;-82
2023/03/05 04:12:35;;;;;;;9.75;3.33;;;1.00;99.90;;;;;;5026033;28;20404;-80
2023/03/05 04:15:06;;;;;;;9.55;3.40;;;0.90;99.90;;;;;;5030385;28;20505;-82
2023/03/05 04:17:32;;;;;;;11.45;4.32;;;0.90;99.90;;;;;;5000304;28;20632;-82
2023/03/05 04:20:00;;;;;;;10.57;3.20;;;0.90;99.90;;;;;;5010462;28;20425;-82
2023/03/05 04:22:26;;;;;;;10.65;3.60;;;0.90;99.90;;;;;;5020466;28;20906;-82
2023/03/05 04:24:52;;;;;;;10.07;3.50;;;0.90;99.90;;;;;;5029432;28;20370;-83
2023/03/05 04:27:21;;;;;;;11.80;3.42;;;0.80;99.90;;;;;;5027195;28;20415;-83
2023/03/05 04:29:47;;;;;;;7.85;3.28;;;0.90;99.90;;;;;;5046457;28;20510;-82
2023/03/05 04:32:21;;;;;;;11.10;3.83;;;0.90;99.90;;;;;;5030532;28;20405;-82
2023/03/05 04:34:47;;;;;;;8.63;3.60;;;1.00;99.90;;;;;;5030577;28;20380;-81
2023/03/05 04:37:13;;;;;;;12.70;3.42;;;0.90;99.90;;;;;;5027374;28;20398;-81
2023/03/05 04:39:54;;;;;;;11.23;3.70;;;0.90;99.90;;;;;;5028607;28;20460;-82
2023/03/05 04:42:20;;;;;;;13.40;3.92;;;0.80;99.90;;;;;;5029984;28;20378;-82
2023/03/05 04:44:57;;;;;;;10.03;3.43;;;0.70;99.90;;;;;;5029686;28;20370;-82
2023/03/05 04:47:23;;;;;;;9.23;3.33;;;0.80;99.90;;;;;;5021789;28;20406;-82
2023/03/05 04:49:51;;;;;;;10.53;3.50;;;0.80;99.90;;;;;;5010659;28;20383;-83
2023/03/05 04:52:18;;;;;;;8.85;3.65;;;0.70;99.90;;;;;;5010747;28;20391;-83
2023/03/05 04:54:44;;;;;;;12.60;3.97;;;0.60;99.90;;;;;;5009612;28;20442;-82
2023/03/05 04:57:15;;;;;;;12.82;3.55;;;0.60;99.90;;;;;;5012563;28;20404;-81
2023/03/05 04:59:40;;;;;;;9.77;3.20;;;0.50;99.90;;;;;;5028636;28;20374;-81
2023/03/05 05:02:08;;;;;;;10.63;3.25;;;0.60;99.90;;;;;;5028772;28;20389;-81
2023/03/05 05:04:37;;;;;;;8.98;3.40;;;0.60;99.90;;;;;;5029550;28;20476;-81
2023/03/05 05:07:06;;;;;;;11.57;3.70;;;0.70;99.90;;;;;;5018140;28;20403;-81
2023/03/05 05:09:33;;;;;;;10.80;3.28;;;0.60;99.90;;;;;;5008350;28;20881;-82
2023/03/05 05:11:59;;;;;;;10.20;3.50;;;0.50;99.90;;;;;;5008523;28;20390;-82
2023/03/05 05:14:25;;;;;;;12.50;3.53;;;0.60;99.90;;;;;;5033891;28;20387;-82
2023/03/05 05:16:53;;;;;;;11.40;3.53;;;0.40;99.90;;;;;;5040684;28;20460;-82
2023/03/05 05:19:18;;;;;;;12.20;3.70;;;0.60;99.90;;;;;;5029904;28;20459;-81
2023/03/05 05:21:49;;;;;;;11.95;3.97;;;0.50;99.90;;;;;;5030569;28;20464;-81
2023/03/05 05:24:17;;;;;;;12.40;4.13;;;0.60;99.90;;;;;;5044603;28;20394;-81
2023/03/05 05:26:45;;;;;;;8.63;3.40;;;0.50;99.90;;;;;;5040635;28;20401;-81
2023/03/05 05:29:11;;;;;;;9.85;3.65;;;0.70;99.90;;;;;;5029780;28;20369;-82
2023/03/05 05:31:37;;;;;;;8.65;3.50;;;0.80;99.90;;;;;;5029458;28;20376;-83
2023/03/05 05:34:03;;;;;;;9.50;3.45;;;0.80;99.90;;;;;;5028506;28;20693;-81
2023/03/05 05:36:29;;;;;;;9.55;3.50;;;0.80;99.90;;;;;;5041882;28;20394;-82
2023/03/05 05:38:55;;;;;;;10.68;3.47;;;0.80;99.90;;;;;;5028814;28;20401;-81
2023/03/05 05:41:21;;;;;;;12.18;3.50;;;0.80;99.90;;;;;;5028931;28;20396;-81
2023/03/05 05:43:47;;;;;;;10.02;3.83;;;0.90;99.90;;;;;;5025090;28;20420;-82
2023/03/05 05:46:18;;;;;;;10.60;4.22;;;0.80;99.90;;;;;;5028836;28;20378;-82
2023/03/05 05:48:47;;;;;;;9.68;4.30;;;0.90;99.90;;;;;;5028192;28;20396;-82
2023/03/05 05:51:19;;;;;;;11.38;4.10;;;0.90;99.90;;;;;;5026732;28;20528;-82
2023/03/05 05:53:45;;;;;;;9.68;3.70;;;0.90;99.90;;;;;;5013003;28;20466;-82
2023/03/05 05:56:15;;;;;;;9.70;3.70;;;0.80;99.90;;;;;;5008974;28;20425;-82
2023/03/05 05:58:46;;;;;;;9.23;4.20;;;0.90;99.90;;;;;;5026794;28;20585;-81
2023/03/05 06:01:37;;;;;;;10.50;3.63;;;0.90;99.90;;;;;;5030890;28;20389;-82
2023/03/05 06:04:06;;;;;;;9.38;3.75;;;0.90;99.90;;;;;;5021085;28;20403;-83
2023/03/05 06:06:33;;;;;;;10.05;3.50;;;1.20;99.90;;;;;;5007271;28;20399;-82
2023/03/05 06:09:02;;;;;;;8.55;3.30;;;1.20;99.90;;;;;;5008984;28;20873;-82
2023/03/05 06:11:28;;;;;;;7.90;3.50;;;1.30;99.90;;;;;;5017721;28;20385;-82
2023/03/05 06:13:54;;;;;;;10.90;3.75;;;1.40;99.90;;;;;;5028654;28;20380;-82
2023/03/05 06:16:24;;;;;;;9.60;3.30;;;1.40;99.90;;;;;;5027086;28;20397;-82
2023/03/05 06:18:51;;;;;;;9.35;3.40;;;1.50;99.90;;;;;;5026659;28;20417;-82
2023/03/05 06:21:18;;;;;;;8.07;3.22;;;1.60;99.90;;;;;;5029081;28;20377;-83
2023/03/05 06:23:47;;;;;;;8.63;3.50;;;1.70;99.90;;;;;;5028372;28;20382;-82
2023/03/05 06:26:16;;;;;;;10.23;3.10;;;1.80;99.90;;;;;;5028908;28;20447;-81
2023/03/05 06:28:42;;;;;;;9.50;3.78;;;1.80;99.90;;;;;;5025259;28;20436;-82
2023/03/05 06:31:15;;;;;;;9.60;3.40;;;1.80;99.90;;;;;;5027563;28;20390;-83
2023/03/05 06:33:44;;;;;;;7.47;3.15;;;1.90;99.90;;;;;;5027898;28;20416;-83
2023/03/05 06:36:12;;;;;;;9.20;3.83;;;2.00;99.90;;;;;;5026547;28;20393;-82
2023/03/05 06:38:39;;;;;;;8.25;3.00;;;1.90;99.90;;;;;;5026745;28;20463;-83
2023/03/05 06:41:10;;;;;;;7.10;2.93;;;2.00;99.90;;;;;;5028262;28;20902;-81
2023/03/05 06:43:40;;;;;;;9.00;3.33;;;2.10;99.90;;;;;;5028199;28;20433;-81
2023/03/05 06:46:20;;;;;;;8.90;3.22;;;2.00;99.90;;;;;;5026681;28;20498;-82
2023/03/05 06:48:46;;;;;;;7.35;2.80;;;1.90;99.90;;;;;;5027582;28;20386;-81
2023/03/05 06:51:18;;;;;;;6.60;2.83;;;1.90;99.90;;;;;;5027658;28;20468;-82
2023/03/05 06:53:44;;;;;;;10.25;3.10;;;2.10;99.90;;;;;;5027808;28;20409;-82
2023/03/05 06:56:12;;;;;;;9.50;3.03;;;2.20;99.90;;;;;;5019904;28;20399;-82
2023/03/05 06:58:59;;;;;;;7.15;2.67;;;2.30;99.90;;;;;;5006415;28;20777;-81
2023/03/05 07:01:24;;;;;;;6.60;2.83;;;2.30;99.90;;;;;;5007042;28;20387;-83
2023/03/05 07:03:52;;;;;;;7.57;2.87;;;2.50;99.90;;;;;;5007114;28;20395;-83
2023/03/05 07:06:19;;;;;;;7.32;2.78;;;2.40;99.90;;;;;;5007049;28;20522;-82
2023/03/05 07:08:44;;;;;;;6.00;2.40;;;2.50;99.90;;;;;;5006341;28;20752;-82
2023/03/05 07:11:17;;;;;;;7.13;2.97;;;2.40;99.90;;;;;;5006625;28;20400;-82
2023/03/05 07:13:43;;;;;;;7.47;2.73;;;2.40;99.90;;;;;;5006402;28;20375;-83
2023/03/05 07:16:13;;;;;;;4.82;2.83;;;2.40;99.90;;;;;;5008760;28;20416;-83
2023/03/05 07:18:39;;;;;;;7.22;2.78;;;2.40;99.90;;;;;;5027511;28;20873;-83
2023/03/05 07:21:06;;;;;;;6.47;2.78;;;2.30;99.90;;;;;;5022649;28;20429;-82
2023/03/05 07:23:33;;;;;;;5.80;2.63;;;2.30;99.90;;;;;;5027317;28;20457;-82
2023/03/05 07:26:04;;;;;;;8.05;3.10;;;2.40;99.90;;;;;;5026131;28;20381;-82
2023/03/05 07:28:30;;;;;;;6.38;2.63;;;2.40;99.90;;;;;;5025363;28;20393;-82
2023/03/05 07:31:08;;;;;;;7.40;2.63;;;2.50;99.90;;;;;;5027896;28;20451;-81
2023/03/05 07:33:35;;;;;;;5.55;2.33;;;2.60;99.90;;;;;;5026396;28;20396;-82
2023/03/05 07:36:03;;;;;;;6.18;2.50;;;2.70;99.90;;;;;;5025570;28;20484;-82
2023/03/05 07:38:30;;;;;;;6.60;2.45;;;2.90;99.90;;;;;;5024989;28;20413;-82
2023/03/05 07:40:56;;;;;;;8.95;2.75;;;3.00;99.90;;;;;;5021640;28;20489;-83
2023/03/05 07:43:22;;;;;;;7.78;2.90;;;3.00;99.90;;;;;;5022801;28;20551;-82
2023/03/05 07:45:47;;;;;;;5.95;2.45;;;3.00;99.90;;;;;;5023996;28;20456;-83
2023/03/05 07:48:16;;;;;;;8.47;2.83;;;3.10;99.90;;;;;;5016032;28;20377;-83
2023/03/05 07:50:42;;;;;;;6.18;2.50;;;3.40;99.90;;;;;;5027460;28;20868;-82
2023/03/05 07:53:09;;;;;;;6.57;2.20;;;3.90;99.90;;;;;;5012428;28;20462;-81
2023/03/05 07:55:43;;;;;;;7.10;2.70;;;4.40;99.90;;;;;;5006222;28;20443;-82
2023/03/05 07:58:10;;;;;;;6.43;2.85;;;4.60;99.90;;;;;;5007655;28;20509;-83
2023/03/05 08:00:36;;;;;;;6.80;2.30;;;5.10;99.90;;;;;;5021732;28;20374;-83
2023/03/05 08:03:02;;;;;;;5.90;2.53;;;5.40;99.90;;;;;;5026279;28;20884;-82
2023/03/05 08:05:27;;;;;;;4.32;2.17;;;5.10;99.90;;;;;;5027857;28;20381;-82
2023/03/05 08:07:53;;;;;;;6.07;2.80;;;4.60;99.90;;;;;;5015915;28;20406;-82
2023/03/05 08:10:19;;;;;;;5.60;2.20;;;4.90;99.90;;;;;;5004923;28;20414;-82
2023/03/05 08:12:45;;;;;;;7.35;2.72;;;5.60;99.90;;;;;;5026089;28;20424;-83
2023/03/05 08:15:11;;;;;;;7.70;2.03;;;5.40;99.90;;;;;;5044861;28;20418;-83
2023/03/05 08:17:36;;;;;;;6.95;2.20;;;4.80;99.90;;;;;;5027457;28;20508;-83
2023/03/05 08:20:08;;;;;;;7.45;2.60;;;4.60;99.90;;;;;;5029178;28;20381;-83
2023/03/05 08:22:35;;;;;;;5.40;2.20;;;4.50;99.90;;;;;;5027648;28;20397;-81
2023/03/05 08:25:02;;;;;;;6.20;2.50;;;4.50;99.90;;;;;;5028643;28;20969;-82
2023/03/05 08:27:31;;;;;;;4.97;2.20;;;4.70;99.90;;;;;;5029092;28;20424;-81
2023/03/05 08:29:59;;;;;;;4.53;1.95;;;5.10;99.90;;;;;;5029351;28;20685;-81
2023/03/05 08:32:25;;;;;;;4.75;2.10;;;5.10;99.90;;;;;;5011999;28;20399;-81
2023/03/05 08:35:01;;;;;;;5.30;2.00;;;5.10;99.90;;;;;;5011090;28;20452;-82
2023/03/05 08:37:27;;;;;;;7.90;2.80;;;5.10;99.90;;;;;;5008429;28;20407;-82
2023/03/05 08:39:56;;;;;;;5.80;2.22;;;4.80;99.90;;;;;;5019393;28;20507;-82
2023/03/05 08:42:25;;;;;;;7.38;2.40;;;4.80;99.90;;;;;;5030878;28;20385;-82
2023/03/05 08:44:51;;;;;;;6.95;2.20;;;4.80;99.90;;;;;;5030177;28;20421;-81
2023/03/05 08:47:18;;;;;;;6.35;2.20;;;4.90;99.90;;;;;;5029858;28;20385;-82
2023/03/05 08:49:43;;;;;;;6.53;2.63;;;5.50;99.90;;;;;;5028656;28;20531;-77
2023/03/05 08:52:09;;;;;;;5.60;2.57;;;5.70;99.90;;;;;;5034233;28;20417;-84
2023/03/05 08:54:36;;;;;;;6.97;2.47;;;5.20;99.90;;;;;;5028867;28;20543;-85
2023/03/05 08:57:02;;;;;;;4.80;2.47;;;5.10;99.90;;;;;;5028041;28;20397;-83
2023/03/05 08:59:27;;;;;;;7.13;2.10;;;5.20;99.90;;;;;;5041341;28;20926;-83
2023/03/05 09:01:53;;;;;;;8.45;2.20;;;5.30;99.90;;;;;;5027984;28;20472;-84
2023/03/05 09:04:19;;;;;;;5.82;2.30;;;5.30;99.90;;;;;;5028138;28;20769;-84
2023/03/05 09:06:44;;;;;;;4.80;2.20;;;5.30;99.90;;;;;;5029985;28;21028;-84
2023/03/05 09:09:11;;;;;;;7.33;2.50;;;5.30;99.90;;;;;;5029135;28;20903;-85
2023/03/05 09:11:36;;;;;;;9.27;2.83;;;5.20;99.90;;;;;;5046753;28;20412;-84
2023/03/05 09:14:04;;;;;;;6.00;2.60;;;5.10;99.90;;;;;;5025124;28;20488;-83
2023/03/05 09:16:30;;;;;;;6.72;2.80;;;5.00;99.90;;;;;;5020604;28;20403;-82
2023/03/05 09:18:57;;;;;;;6.40;2.47;;;5.00;99.90;;;;;;5007445;28;20510;-84
2023/03/05 09:21:22;;;;;;;7.95;3.05;;;5.20;99.90;;;;;;5023172;28;20426;-84
2023/03/05 09:23:48;;;;;;;5.00;2.03;;;5.50;99.90;;;;;;5012317;28;20417;-82
2023/03/05 09:26:18;;;;;;;6.10;2.40;;;5.60;99.90;;;;;;5008004;28;20453;-84
2023/03/05 09:28:45;;;;;;;6.80;2.78;;;5.30;99.90;;;;;;5009769;28;20453;-83
2023/03/05 09:31:11;;;;;;;4.68;2.63;;;4.90;99.90;;;;;;5009103;28;20398;-82
2023/03/05 09:33:38;;;;;;;6.37;2.60;;;5.10;99.90;;;;;;5009086;28;20944;-82
2023/03/05 09:36:14;;;;;;;8.13;2.90;;;5.30;99.90;;;;;;5014364;28;20386;-83
2023/03/05 09:38:40;;;;;;;4.77;2.47;;;5.20;99.90;;;;;;5024971;28;20975;-83
2023/03/05 09:41:44;;;;;;;6.03;2.73;;;5.50;99.90;;;;;;5025309;28;20470;-83
2023/03/05 09:44:25;;;;;;;5.95;2.00;;;6.00;99.90;;;;;;5010367;28;20406;-84
2023/03/05 09:47:07;;;;;;;5.13;2.50;;;6.10;99.90;;;;;;5009833;28;20477;-84
2023/03/05 09:49:42;;;;;;;5.25;2.65;;;6.30;99.90;;;;;;5010290;28;20371;-83
2023/03/05 09:52:20;;;;;;;5.03;2.35;;;6.20;99.90;;;;;;5009741;28;20884;-82
2023/03/05 09:54:52;;;;;;;6.40;2.47;;;5.90;99.90;;;;;;5010627;28;20464;-83
2023/03/05 09:57:26;;;;;;;5.60;2.60;;;5.30;99.90;;;;;;5009601;28;20510;-83
2023/03/05 10:00:33;;;;;;;5.93;2.28;;;5.10;99.90;;;;;;5008785;28;20913;-83
2023/03/05 10:03:06;;;;;;;5.60;2.78;;;5.00;99.90;;;;;;5007275;28;20521;-85
2023/03/05 10:06:11;;;;;;;3.80;2.30;;;4.70;99.90;;;;;;5009756;28;20398;-83
2023/03/05 10:08:57;;;;;;;6.05;2.30;;;4.70;99.90;;;;;;5022940;28;20740;-85
2023/03/05 10:11:46;;;;;;;5.72;2.03;;;5.70;99.90;;;;;;5029435;28;20870;-85
2023/03/05 10:14:22;;;;;;;4.93;2.17;;;6.10;99.90;;;;;;5006517;28;20489;-84
2023/03/05 10:16:56;;;;;;;4.00;2.22;;;5.90;99.90;;;;;;5009904;28;21013;-83
2023/03/05 10:19:41;;;;;;;6.78;2.03;;;5.30;99.90;;;;;;5016064;28;20491;-82
2023/03/05 10:22:21;;;;;;;5.18;2.08;;;5.10;99.90;;;;;;5015543;28;20484;-83
2023/03/05 10:25:23;;;;;;;5.13;2.38;;;4.90;99.90;;;;;;5007948;28;20860;-84
2023/03/05 10:27:55;;;;;;;4.85;2.10;;;4.90;99.90;;;;;;4990134;28;21134;-82
2023/03/05 10:30:27;;;;;;;6.82;2.75;;;4.80;99.90;;;;;;5024517;28;20475;-82
2023/03/05 10:33:10;;;;;;;6.38;2.70;;;4.70;99.90;;;;;;5024479;28;20556;-82
2023/03/05 10:36:05;;;;;;;5.60;2.70;;;4.40;99.90;;;;;;5023675;28;20386;-82
2023/03/05 10:39:04;;;;;;;7.47;2.67;;;4.40;99.90;;;;;;5024458;28;20492;-83
2023/03/05 10:42:01;;;;;;;5.93;2.50;;;4.30;99.90;;;;;;5022133;28;20385;-83
2023/03/05 10:44:51;;;;;;;6.22;2.85;;;4.10;99.90;;;;;;5025828;28;20385;-83
2023/03/05 10:47:26;;;;;;;6.30;2.80;;;4.20;99.90;;;;;;5016184;28;20412;-82
2023/03/05 10:49:57;;;;;;;5.88;3.10;;;4.20;99.90;;;;;;5024411;28;20393;-83
2023/03/05 10:52:39;;;;;;;5.18;2.33;;;4.30;99.90;;;;;;5025615;28;20470;-83
2023/03/05 10:55:21;;;;;;;5.55;2.80;;;4.50;99.90;;;;;;5021241;28;20397;-82
2023/03/05 10:57:47;;;;;;;4.93;2.42;;;4.60;99.90;;;;;;5021938;28;20409;-83
2023/03/05 11:00:22;;;;;;;6.75;2.65;;;4.50;99.90;;;;;;5023706;28;20803;-84
2023/03/05 11:03:03;;;;;;;5.78;2.78;;;4.50;99.90;;;;;;5021540;28;20437;-82
2023/03/05 11:05:38;;;;;;;5.70;2.87;;;4.50;99.90;;;;;;5026704;28;21338;-82
2023/03/05 11:08:30;;;;;;;6.13;3.08;;;4.30;99.90;;;;;;5024157;28;20496;-84
2023/03/05 11:11:10;;;;;;;6.20;2.97;;;4.20;99.90;;;;;;5025919;28;20396;-84
2023/03/05 11:14:02;;;;;;;6.07;2.53;;;4.30;99.90;;;;;;5023820;28;20377;-83
2023/03/05 11:16:31;;;;;;;8.07;3.17;;;4.50;99.90;;;;;;5026278;28;20508;-84
2023/03/05 11:19:28;;;;;;;6.00;2.95;;;4.60;99.90;;;;;;5025540;28;20405;-84
2023/03/05 11:22:19;;;;;;;4.23;2.50;;;4.40;99.90;;;;;;5025995;28;20396;-84
2023/03/05 11:25:11;;;;;;;6.13;2.88;;;4.10;99.90;;;;;;5014019;28;20390;-83
2023/03/05 11:27:43;;;;;;;5.20;3.00;;;3.90;99.90;;;;;;5007900;28;20410;-83
2023/03/05 11:30:24;;;;;;;6.28;3.38;;;3.80;99.90;;;;;;5007055;28;20389;-83
2023/03/05 11:33:05;;;;;;;9.77;3.55;;;3.70;99.90;;;;;;5002239;28;20391;-83
2023/03/05 11:35:34;;;;;;;7.30;3.67;;;3.70;99.90;;;;;;5007532;28;20391;-83
2023/03/05 11:38:02;;;;;;;7.40;3.37;;;3.60;99.90;;;;;;5009130;28;20428;-83
2023/03/05 11:40:31;;;;;;;10.00;3.55;;;3.50;99.90;;;;;;5007966;28;20387;-83
2023/03/05 11:42:59;;;;;;;6.80;3.87;;;3.50;99.90;;;;;;5007871;28;20389;-84
2023/03/05 11:45:27;;;;;;;6.50;3.55;;;3.60;99.90;;;;;;5009365;28;20394;-85
2023/03/05 11:48:16;;;;;;;6.93;3.70;;;3.80;99.90;;;;;;5008826;28;20414;-84
2023/03/05 11:50:44;;;;;;;6.70;4.03;;;3.80;99.90;;;;;;5011541;28;20411;-85
2023/03/05 11:53:29;;;;;;;6.10;3.42;;;3.80;99.90;;;;;;5018475;28;20520;-83
2023/03/05 11:56:03;;;;;;;6.72;3.38;;;3.90;99.90;;;;;;5030842;28;20946;-84
2023/03/05 11:58:42;;;;;;;5.30;3.28;;;4.00;99.90;;;;;;5017230;28;20887;-83
2023/03/05 12:01:30;;;;;;;9.98;3.67;;;4.10;99.90;;;;;;5025593;28;20944;-84
2023/03/05 12:03:56;;;;;;;5.47;3.38;;;4.50;99.90;;;;;;5030284;28;20935;-83
2023/03/05 12:06:50;;;;;;;6.87;3.03;;;4.70;99.90;;;;;;5031035;28;20382;-84
2023/03/05 12:09:39;;;;;;;5.05;2.80;;;4.80;99.90;;;;;;5031738;28;20394;-84
2023/03/05 12:12:35;;;;;;;4.90;2.80;;;5.10;99.90;;;;;;5027760;28;20898;-84
2023/03/05 12:15:20;;;;;;;6.57;3.17;;;5.20;99.90;;;;;;5027902;28;20429;-85
2023/03/05 12:18:01;;;;;;;6.00;2.95;;;4.90;99.90;;;;;;5026059;28;20401;-85
2023/03/05 12:20:33;;;;;;;6.25;3.05;;;4.60;99.90;;;;;;5025754;28;20394;-83
2023/03/05 12:22:59;;;;;;;7.10;3.20;;;4.20;99.90;;;;;;5028472;28;20472;-84
2023/03/05 12:25:27;;;;;;;6.63;3.42;;;3.90;99.90;;;;;;5027534;28;20410;-85
2023/03/05 12:27:54;;;;;;;6.20;3.50;;;3.70;99.90;;;;;;5030630;28;20417;-83
2023/03/05 12:30:34;;;;;;;5.78;3.30;;;3.70;99.90;;;;;;5028418;28;20459;-85
2023/03/05 12:33:23;;;;;;;4.72;2.80;;;3.80;99.90;;;;;;5011147;28;20500;-84
2023/03/05 12:35:49;;;;;;;9.43;3.50;;;4.00;99.90;;;;;;5027109;28;20415;-83
2023/03/05 12:38:28;;;;;;;7.05;2.90;;;4.10;99.90;;;;;;5029397;28;20971;-85
2023/03/05 12:41:29;;;;;;;6.25;2.70;;;4.00;99.90;;;;;;5026527;28;20479;-84
2023/03/05 12:44:04;;;;;;;5.45;2.50;;;4.20;99.90;;;;;;5014910;28;20411;-84
2023/03/05 12:46:34;;;;;;;5.95;2.42;;;4.40;99.90;;;;;;5022336;28;20397;-85
2023/03/05 12:49:25;;;;;;;6.65;2.55;;;4.40;99.90;;;;;;5024165;28;20448;-82
2023/03/05 12:51:54;;;;;;;5.35;2.47;;;4.50;99.90;;;;;;5027146;28;20733;-84
2023/03/05 12:54:40;;;;;;;6.97;2.30;;;4.50;99.90;;;;;;5027981;28;20900;-83
2023/03/05 12:57:22;;;;;;;5.57;2.47;;;4.50;99.90;;;;;;5028400;28;20464;-83
2023/03/05 13:00:02;;;;;;;4.03;2.30;;;4.80;99.90;;;;;;5025941;28;20507;-84
2023/03/05 13:02:38;;;;;;;4.83;2.50;;;4.90;99.90;;;;;;5027379;28;20420;-83
2023/03/05 13:05:23;;;;;;;6.50;2.80;;;4.70;99.90;;;;;;5027808;28;20933;-83
2023/03/05 13:07:50;;;;;;;6.18;2.30;;;4.80;99.90;;;;;;5026431;28;20385;-82
2023/03/05 13:10:22;;;;;;;4.15;2.15;;;4.80;99.90;;;;;;5024484;28;20393;-83
2023/03/05 13:12:53;;;;;;;4.65;2.40;;;4.80;99.90;;;;;;5021721;28;20413;-83